sensor_id;sensor_type;location;lat;lon;timestamp;pressure;altitude;pressure_sealevel;temperature;humidity
74103;BME280;62853;46.166;3.640;2022-12-20T00:01:43;101261.63;;;8.65;100.00
74103;BME280;62853;46.166;3.640;2022-12-20T00:04:09;101265.06;;;8.67;100.00
74103;BME280;62853;46.166;3.640;2022-12-20T00:06:35;101262.59;;;8.63;100.00
74103;BME280;62853;46.166;3.640;2022-12-20T00:09:03;101270.25;;;8.69;100.00
74103;BME280;62853;46.166;3.640;2022-12-20T00:11:29;101263.75;;;8.78;100.00
74103;BME280;62853;46.166;3.640;2022-12-20T00:13:55;101265.28;;;8.83;100.00
74103;BME280;62853;46.166;3.640;2022-12-20T00:16:26;101279.44;;;9.01;100.00
74103;BME280;62853;46.166;3.640;2022-12-20T00:18:54;101251.56;;;8.97;100.00
74103;BME280;62853;46.166;3.640;2022-12-20T00:21:20;101261.03;;;9.01;100.00
74103;BME280;62853;46.166;3.640;2022-12-20T00:23:45;101244.38;;;9.02;100.00
74103;BME280;62853;46.166;3.640;2022-12-20T00:26:15;101242.31;;;9.09;100.00
74103;BME280;62853;46.166;3.640;2022-12-20T00:28:41;101244.81;;;9.12;100.00
74103;BME280;62853;46.166;3.640;2022-12-20T00:31:08;101250.00;;;9.13;100.00
74103;BME280;62853;46.166;3.640;2022-12-20T00:33:35;101243.06;;;9.12;100.00
74103;BME280;62853;46.166;3.640;2022-12-20T00:36:02;101251.66;;;9.16;100.00
74103;BME280;62853;46.166;3.640;2022-12-20T00:38:28;101235.97;;;9.15;100.00
74103;BME280;62853;46.166;3.640;2022-12-20T00:41:11;101237.41;;;9.22;100.00
74103;BME280;62853;46.166;3.640;2022-12-20T00:43:37;101240.25;;;9.38;100.00
74103;BME280;62853;46.166;3.640;2022-12-20T00:46:03;101228.41;;;9.48;100.00
74103;BME280;62853;46.166;3.640;2022-12-20T00:48:29;101223.09;;;9.49;100.00
74103;BME280;62853;46.166;3.640;2022-12-20T00:51:04;101229.00;;;9.55;100.00
74103;BME280;62853;46.166;3.640;2022-12-20T00:53:30;101226.19;;;9.58;100.00
74103;BME280;62853;46.166;3.640;2022-12-20T00:55:55;101230.06;;;9.69;100.00
74103;BME280;62853;46.166;3.640;2022-12-20T00:58:20;101237.69;;;9.76;100.00
74103;BME280;62853;46.166;3.640;2022-12-20T01:00:46;101234.06;;;9.78;100.00
74103;BME280;62853;46.166;3.640;2022-12-20T01:03:12;101235.56;;;9.84;100.00
74103;BME280;62853;46.166;3.640;2022-12-20T01:05:38;101221.75;;;9.79;100.00
74103;BME280;62853;46.166;3.640;2022-12-20T01:08:04;101238.38;;;9.60;100.00
74103;BME280;62853;46.166;3.640;2022-12-20T01:10:30;101234.69;;;9.44;100.00
74103;BME280;62853;46.166;3.640;2022-12-20T01:12:55;101257.13;;;9.32;100.00
74103;BME280;62853;46.166;3.640;2022-12-20T01:15:21;101263.75;;;9.20;100.00
74103;BME280;62853;46.166;3.640;2022-12-20T01:17:46;101249.47;;;9.05;100.00
74103;BME280;62853;46.166;3.640;2022-12-20T01:20:12;101247.91;;;9.01;100.00
74103;BME280;62853;46.166;3.640;2022-12-20T01:22:38;101232.50;;;8.92;100.00
74103;BME280;62853;46.166;3.640;2022-12-20T01:25:03;101238.16;;;8.83;100.00
74103;BME280;62853;46.166;3.640;2022-12-20T01:27:30;101257.78;;;8.74;100.00
74103;BME280;62853;46.166;3.640;2022-12-20T01:29:55;101256.25;;;8.68;100.00
74103;BME280;62853;46.166;3.640;2022-12-20T01:32:20;101249.53;;;8.61;100.00
74103;BME280;62853;46.166;3.640;2022-12-20T01:34:46;101252.22;;;8.60;100.00
74103;BME280;62853;46.166;3.640;2022-12-20T01:37:11;101234.78;;;8.59;100.00
74103;BME280;62853;46.166;3.640;2022-12-20T01:39:37;101231.34;;;8.56;100.00
74103;BME280;62853;46.166;3.640;2022-12-20T01:42:03;101230.59;;;8.53;100.00
74103;BME280;62853;46.166;3.640;2022-12-20T01:46:54;101229.94;;;8.48;100.00
74103;BME280;62853;46.166;3.640;2022-12-20T01:49:30;101220.38;;;8.47;100.00
74103;BME280;62853;46.166;3.640;2022-12-20T01:52:00;101204.47;;;8.50;100.00
74103;BME280;62853;46.166;3.640;2022-12-20T01:54:36;101195.88;;;8.46;100.00
74103;BME280;62853;46.166;3.640;2022-12-20T01:57:06;101198.38;;;8.49;100.00
74103;BME280;62853;46.166;3.640;2022-12-20T01:59:35;101193.97;;;8.50;100.00
74103;BME280;62853;46.166;3.640;2022-12-20T02:02:04;101192.28;;;8.49;100.00
74103;BME280;62853;46.166;3.640;2022-12-20T02:04:31;101196.81;;;8.45;100.00
74103;BME280;62853;46.166;3.640;2022-12-20T02:06:57;101208.16;;;8.46;100.00
74103;BME280;62853;46.166;3.640;2022-12-20T02:09:23;101212.59;;;8.44;100.00
74103;BME280;62853;46.166;3.640;2022-12-20T02:12:08;101200.41;;;8.41;100.00
74103;BME280;62853;46.166;3.640;2022-12-20T02:17:25;101198.78;;;8.38;100.00
74103;BME280;62853;46.166;3.640;2022-12-20T02:23:01;101178.56;;;8.41;100.00
74103;BME280;62853;46.166;3.640;2022-12-20T02:26:18;101177.00;;;8.36;100.00
74103;BME280;62853;46.166;3.640;2022-12-20T02:29:15;101176.78;;;8.41;100.00
74103;BME280;62853;46.166;3.640;2022-12-20T02:31:56;101169.19;;;8.35;100.00
74103;BME280;62853;46.166;3.640;2022-12-20T02:34:25;101165.75;;;8.33;100.00
74103;BME280;62853;46.166;3.640;2022-12-20T02:36:51;101153.16;;;8.41;100.00
74103;BME280;62853;46.166;3.640;2022-12-20T02:39:20;101160.19;;;8.41;100.00
74103;BME280;62853;46.166;3.640;2022-12-20T02:41:51;101157.50;;;8.42;100.00
74103;BME280;62853;46.166;3.640;2022-12-20T02:44:20;101156.72;;;8.40;100.00
74103;BME280;62853;46.166;3.640;2022-12-20T02:47:10;101155.19;;;8.34;100.00
74103;BME280;62853;46.166;3.640;2022-12-20T02:49:38;101152.25;;;8.42;100.00
74103;BME280;62853;46.166;3.640;2022-12-20T02:52:08;101148.69;;;8.45;100.00
74103;BME280;62853;46.166;3.640;2022-12-20T02:54:37;101145.03;;;8.49;100.00
74103;BME280;62853;46.166;3.640;2022-12-20T02:57:30;101140.63;;;8.49;100.00
74103;BME280;62853;46.166;3.640;2022-12-20T03:00:04;101135.59;;;8.43;100.00
74103;BME280;62853;46.166;3.640;2022-12-20T03:02:32;101146.88;;;8.47;100.00
74103;BME280;62853;46.166;3.640;2022-12-20T03:05:19;101143.59;;;8.40;100.00
74103;BME280;62853;46.166;3.640;2022-12-20T03:07:45;101153.16;;;8.41;100.00
74103;BME280;62853;46.166;3.640;2022-12-20T03:10:11;101149.63;;;8.42;100.00
74103;BME280;62853;46.166;3.640;2022-12-20T03:12:36;101164.38;;;8.46;100.00
74103;BME280;62853;46.166;3.640;2022-12-20T03:15:02;101156.13;;;8.55;100.00
74103;BME280;62853;46.166;3.640;2022-12-20T03:17:27;101149.94;;;8.56;100.00
74103;BME280;62853;46.166;3.640;2022-12-20T03:19:52;101144.56;;;8.60;100.00
74103;BME280;62853;46.166;3.640;2022-12-20T03:22:18;101139.13;;;8.64;100.00
74103;BME280;62853;46.166;3.640;2022-12-20T03:24:43;101138.00;;;8.70;100.00
74103;BME280;62853;46.166;3.640;2022-12-20T03:27:08;101138.94;;;8.69;100.00
74103;BME280;62853;46.166;3.640;2022-12-20T03:29:34;101148.38;;;8.73;100.00
74103;BME280;62853;46.166;3.640;2022-12-20T03:31:59;101137.44;;;8.84;100.00
74103;BME280;62853;46.166;3.640;2022-12-20T03:34:24;101146.28;;;8.81;100.00
74103;BME280;62853;46.166;3.640;2022-12-20T03:36:50;101150.44;;;8.87;100.00
74103;BME280;62853;46.166;3.640;2022-12-20T03:39:15;101148.44;;;8.92;100.00
74103;BME280;62853;46.166;3.640;2022-12-20T03:41:40;101143.06;;;8.95;100.00
74103;BME280;62853;46.166;3.640;2022-12-20T03:44:06;101149.97;;;8.98;100.00
74103;BME280;62853;46.166;3.640;2022-12-20T03:46:31;101157.88;;;8.98;100.00
74103;BME280;62853;46.166;3.640;2022-12-20T03:48:57;101132.63;;;8.93;100.00
74103;BME280;62853;46.166;3.640;2022-12-20T03:51:22;101150.56;;;9.04;100.00
74103;BME280;62853;46.166;3.640;2022-12-20T03:53:47;101151.22;;;9.09;100.00
74103;BME280;62853;46.166;3.640;2022-12-20T03:56:13;101148.41;;;9.14;100.00
74103;BME280;62853;46.166;3.640;2022-12-20T03:58:38;101141.28;;;9.16;100.00
74103;BME280;62853;46.166;3.640;2022-12-20T04:01:16;101141.09;;;9.21;100.00
74103;BME280;62853;46.166;3.640;2022-12-20T04:03:42;101134.06;;;9.21;100.00
74103;BME280;62853;46.166;3.640;2022-12-20T04:06:07;101132.41;;;9.19;100.00
74103;BME280;62853;46.166;3.640;2022-12-20T04:08:33;101134.19;;;9.18;100.00
74103;BME280;62853;46.166;3.640;2022-12-20T04:10:58;101133.06;;;9.24;100.00
74103;BME280;62853;46.166;3.640;2022-12-20T04:13:49;101125.25;;;9.22;100.00
74103;BME280;62853;46.166;3.640;2022-12-20T04:16:17;101133.34;;;9.18;100.00
74103;BME280;62853;46.166;3.640;2022-12-20T04:18:43;101142.06;;;9.18;100.00
74103;BME280;62853;46.166;3.640;2022-12-20T04:21:09;101127.22;;;9.17;100.00
74103;BME280;62853;46.166;3.640;2022-12-20T04:23:36;101132.28;;;9.22;100.00
74103;BME280;62853;46.166;3.640;2022-12-20T04:26:03;101137.34;;;9.26;100.00
74103;BME280;62853;46.166;3.640;2022-12-20T04:28:30;101118.94;;;9.26;100.00
74103;BME280;62853;46.166;3.640;2022-12-20T04:30:56;101119.31;;;9.38;100.00
74103;BME280;62853;46.166;3.640;2022-12-20T04:33:22;101129.66;;;9.41;100.00
74103;BME280;62853;46.166;3.640;2022-12-20T04:35:48;101117.34;;;9.43;100.00
74103;BME280;62853;46.166;3.640;2022-12-20T04:38:13;101112.97;;;9.42;100.00
74103;BME280;62853;46.166;3.640;2022-12-20T04:40:39;101102.41;;;9.43;100.00
74103;BME280;62853;46.166;3.640;2022-12-20T04:43:05;101112.16;;;9.41;100.00
74103;BME280;62853;46.166;3.640;2022-12-20T04:45:30;101107.88;;;9.39;100.00
74103;BME280;62853;46.166;3.640;2022-12-20T04:47:55;101115.75;;;9.39;100.00
74103;BME280;62853;46.166;3.640;2022-12-20T04:50:21;101119.22;;;9.39;100.00
74103;BME280;62853;46.166;3.640;2022-12-20T04:52:46;101111.06;;;9.45;100.00
74103;BME280;62853;46.166;3.640;2022-12-20T04:55:30;101103.81;;;9.50;100.00
74103;BME280;62853;46.166;3.640;2022-12-20T04:57:55;101097.84;;;9.47;100.00
74103;BME280;62853;46.166;3.640;2022-12-20T05:00:21;101099.19;;;9.56;100.00
74103;BME280;62853;46.166;3.640;2022-12-20T05:02:46;101106.09;;;9.58;100.00
74103;BME280;62853;46.166;3.640;2022-12-20T05:05:12;101105.22;;;9.58;100.00
74103;BME280;62853;46.166;3.640;2022-12-20T05:07:38;101097.34;;;9.58;100.00
74103;BME280;62853;46.166;3.640;2022-12-20T05:10:04;101093.09;;;9.55;100.00
74103;BME280;62853;46.166;3.640;2022-12-20T05:12:29;101094.00;;;9.54;100.00
74103;BME280;62853;46.166;3.640;2022-12-20T05:14:55;101084.63;;;9.48;100.00
74103;BME280;62853;46.166;3.640;2022-12-20T05:17:20;101095.72;;;9.55;100.00
74103;BME280;62853;46.166;3.640;2022-12-20T05:19:46;101092.09;;;9.58;100.00
74103;BME280;62853;46.166;3.640;2022-12-20T05:22:11;101078.88;;;9.59;100.00
74103;BME280;62853;46.166;3.640;2022-12-20T05:24:55;101068.53;;;9.56;100.00
74103;BME280;62853;46.166;3.640;2022-12-20T05:27:39;101077.31;;;9.55;100.00
74103;BME280;62853;46.166;3.640;2022-12-20T05:30:05;101058.13;;;9.53;100.00
74103;BME280;62853;46.166;3.640;2022-12-20T05:32:30;101079.03;;;9.56;100.00
74103;BME280;62853;46.166;3.640;2022-12-20T05:34:55;101070.34;;;9.54;100.00
74103;BME280;62853;46.166;3.640;2022-12-20T05:37:21;101068.16;;;9.45;100.00
74103;BME280;62853;46.166;3.640;2022-12-20T05:39:46;101062.91;;;9.45;100.00
74103;BME280;62853;46.166;3.640;2022-12-20T05:42:12;101056.94;;;9.41;100.00
74103;BME280;62853;46.166;3.640;2022-12-20T05:44:37;101061.50;;;9.38;100.00
74103;BME280;62853;46.166;3.640;2022-12-20T05:47:02;101065.94;;;9.36;100.00
74103;BME280;62853;46.166;3.640;2022-12-20T05:49:28;101067.09;;;9.30;100.00
74103;BME280;62853;46.166;3.640;2022-12-20T05:51:53;101065.44;;;9.27;100.00
74103;BME280;62853;46.166;3.640;2022-12-20T05:54:18;101064.44;;;9.30;100.00
74103;BME280;62853;46.166;3.640;2022-12-20T05:56:44;101049.66;;;9.27;100.00
74103;BME280;62853;46.166;3.640;2022-12-20T05:59:09;101041.50;;;9.34;100.00
74103;BME280;62853;46.166;3.640;2022-12-20T06:01:34;101046.00;;;9.31;100.00
74103;BME280;62853;46.166;3.640;2022-12-20T06:04:00;101037.03;;;9.36;100.00
74103;BME280;62853;46.166;3.640;2022-12-20T06:06:26;101030.91;;;9.35;100.00
74103;BME280;62853;46.166;3.640;2022-12-20T06:08:51;101028.38;;;9.34;100.00
74103;BME280;62853;46.166;3.640;2022-12-20T06:11:17;101011.59;;;9.36;100.00
74103;BME280;62853;46.166;3.640;2022-12-20T06:13:42;101004.28;;;9.43;100.00
74103;BME280;62853;46.166;3.640;2022-12-20T06:16:07;101010.72;;;9.36;100.00
74103;BME280;62853;46.166;3.640;2022-12-20T06:18:33;101003.50;;;9.22;100.00
74103;BME280;62853;46.166;3.640;2022-12-20T06:20:58;101006.41;;;9.16;100.00
74103;BME280;62853;46.166;3.640;2022-12-20T06:23:23;101012.53;;;9.16;100.00
74103;BME280;62853;46.166;3.640;2022-12-20T06:25:49;100990.81;;;9.12;100.00
74103;BME280;62853;46.166;3.640;2022-12-20T06:28:14;101007.56;;;9.10;100.00
74103;BME280;62853;46.166;3.640;2022-12-20T06:30:53;101015.22;;;9.15;100.00
74103;BME280;62853;46.166;3.640;2022-12-20T06:33:19;101023.25;;;9.11;100.00
74103;BME280;62853;46.166;3.640;2022-12-20T06:35:45;101013.06;;;9.04;100.00
74103;BME280;62853;46.166;3.640;2022-12-20T06:38:10;101014.78;;;9.05;100.00
74103;BME280;62853;46.166;3.640;2022-12-20T06:40:36;101011.91;;;9.11;100.00
74103;BME280;62853;46.166;3.640;2022-12-20T06:43:02;101011.59;;;9.17;100.00
74103;BME280;62853;46.166;3.640;2022-12-20T06:45:27;101000.94;;;9.20;100.00
74103;BME280;62853;46.166;3.640;2022-12-20T06:47:53;100989.31;;;9.26;100.00
74103;BME280;62853;46.166;3.640;2022-12-20T06:50:18;100996.75;;;9.35;100.00
74103;BME280;62853;46.166;3.640;2022-12-20T06:52:43;101007.00;;;9.41;100.00
74103;BME280;62853;46.166;3.640;2022-12-20T06:55:08;100995.78;;;9.38;100.00
74103;BME280;62853;46.166;3.640;2022-12-20T06:57:34;101002.72;;;9.39;100.00
74103;BME280;62853;46.166;3.640;2022-12-20T07:00:00;101017.56;;;9.40;100.00
74103;BME280;62853;46.166;3.640;2022-12-20T07:02:25;101006.28;;;9.38;100.00
74103;BME280;62853;46.166;3.640;2022-12-20T07:04:50;101014.88;;;9.41;100.00
74103;BME280;62853;46.166;3.640;2022-12-20T07:07:16;101010.31;;;9.45;100.00
74103;BME280;62853;46.166;3.640;2022-12-20T07:09:41;101000.66;;;9.45;100.00
74103;BME280;62853;46.166;3.640;2022-12-20T07:12:08;100998.56;;;9.52;100.00
74103;BME280;62853;46.166;3.640;2022-12-20T07:14:33;101013.66;;;9.48;100.00
74103;BME280;62853;46.166;3.640;2022-12-20T07:16:59;101012.16;;;9.43;100.00
74103;BME280;62853;46.166;3.640;2022-12-20T07:19:24;101015.00;;;9.38;100.00
74103;BME280;62853;46.166;3.640;2022-12-20T07:21:50;101014.34;;;9.52;100.00
74103;BME280;62853;46.166;3.640;2022-12-20T07:24:15;101006.47;;;9.52;100.00
74103;BME280;62853;46.166;3.640;2022-12-20T07:26:43;101023.16;;;9.51;100.00
74103;BME280;62853;46.166;3.640;2022-12-20T07:29:09;101009.38;;;9.46;100.00
74103;BME280;62853;46.166;3.640;2022-12-20T07:31:34;101014.22;;;9.55;100.00
74103;BME280;62853;46.166;3.640;2022-12-20T07:34:00;101012.22;;;9.60;100.00
74103;BME280;62853;46.166;3.640;2022-12-20T07:36:25;101017.13;;;9.68;100.00
74103;BME280;62853;46.166;3.640;2022-12-20T07:38:50;101013.75;;;9.64;100.00
74103;BME280;62853;46.166;3.640;2022-12-20T07:41:17;101022.44;;;9.66;100.00
74103;BME280;62853;46.166;3.640;2022-12-20T07:43:43;101033.53;;;9.73;100.00
74103;BME280;62853;46.166;3.640;2022-12-20T07:46:09;101033.34;;;9.76;100.00
74103;BME280;62853;46.166;3.640;2022-12-20T07:48:36;101026.25;;;9.78;100.00
74103;BME280;62853;46.166;3.640;2022-12-20T07:51:06;101033.63;;;9.89;100.00
74103;BME280;62853;46.166;3.640;2022-12-20T07:53:34;101040.41;;;9.93;100.00
74103;BME280;62853;46.166;3.640;2022-12-20T07:56:04;101031.63;;;9.94;100.00
74103;BME280;62853;46.166;3.640;2022-12-20T07:58:32;101028.13;;;9.94;100.00
74103;BME280;62853;46.166;3.640;2022-12-20T08:01:00;101044.63;;;9.97;100.00
74103;BME280;62853;46.166;3.640;2022-12-20T08:03:36;101036.50;;;10.02;100.00
74103;BME280;62853;46.166;3.640;2022-12-20T08:06:03;101041.16;;;9.97;100.00
74103;BME280;62853;46.166;3.640;2022-12-20T08:08:35;101047.06;;;9.83;100.00
74103;BME280;62853;46.166;3.640;2022-12-20T08:11:03;101038.94;;;9.70;100.00
74103;BME280;62853;46.166;3.640;2022-12-20T08:13:31;101039.97;;;9.66;100.00
74103;BME280;62853;46.166;3.640;2022-12-20T08:15:57;101039.59;;;9.56;100.00
74103;BME280;62853;46.166;3.640;2022-12-20T08:18:22;101037.16;;;9.52;100.00
74103;BME280;62853;46.166;3.640;2022-12-20T08:20:48;101035.19;;;9.38;100.00
74103;BME280;62853;46.166;3.640;2022-12-20T08:23:13;101036.25;;;9.34;100.00
74103;BME280;62853;46.166;3.640;2022-12-20T08:25:39;101045.34;;;9.26;100.00
74103;BME280;62853;46.166;3.640;2022-12-20T08:28:05;101039.31;;;9.24;100.00
74103;BME280;62853;46.166;3.640;2022-12-20T08:30:30;101037.75;;;9.20;100.00
74103;BME280;62853;46.166;3.640;2022-12-20T08:32:55;101036.75;;;9.23;100.00
74103;BME280;62853;46.166;3.640;2022-12-20T08:35:21;101042.00;;;9.23;100.00
74103;BME280;62853;46.166;3.640;2022-12-20T08:37:47;101036.25;;;9.15;100.00
74103;BME280;62853;46.166;3.640;2022-12-20T08:40:12;101029.47;;;9.09;100.00
74103;BME280;62853;46.166;3.640;2022-12-20T08:42:39;101029.84;;;9.01;100.00
74103;BME280;62853;46.166;3.640;2022-12-20T08:45:04;101037.03;;;8.98;100.00
74103;BME280;62853;46.166;3.640;2022-12-20T08:47:30;101030.19;;;8.93;100.00
74103;BME280;62853;46.166;3.640;2022-12-20T08:49:55;101032.16;;;8.88;100.00
74103;BME280;62853;46.166;3.640;2022-12-20T08:52:21;101029.66;;;8.85;100.00
74103;BME280;62853;46.166;3.640;2022-12-20T08:54:46;101017.59;;;8.81;100.00
74103;BME280;62853;46.166;3.640;2022-12-20T08:57:11;101019.97;;;8.87;100.00
74103;BME280;62853;46.166;3.640;2022-12-20T08:59:37;101021.38;;;8.94;100.00
74103;BME280;62853;46.166;3.640;2022-12-20T09:02:02;101016.50;;;9.06;100.00
74103;BME280;62853;46.166;3.640;2022-12-20T09:04:27;101013.59;;;9.12;100.00
74103;BME280;62853;46.166;3.640;2022-12-20T09:06:53;101008.81;;;9.20;100.00
74103;BME280;62853;46.166;3.640;2022-12-20T09:09:18;101008.63;;;9.25;100.00
74103;BME280;62853;46.166;3.640;2022-12-20T09:11:44;100993.50;;;9.30;100.00
74103;BME280;62853;46.166;3.640;2022-12-20T09:14:09;101003.72;;;9.36;100.00
74103;BME280;62853;46.166;3.640;2022-12-20T09:16:35;101009.75;;;9.38;100.00
74103;BME280;62853;46.166;3.640;2022-12-20T09:19:01;101009.81;;;9.37;100.00
74103;BME280;62853;46.166;3.640;2022-12-20T09:21:28;101002.91;;;9.34;100.00
74103;BME280;62853;46.166;3.640;2022-12-20T09:23:55;101004.50;;;9.38;100.00
74103;BME280;62853;46.166;3.640;2022-12-20T09:26:22;101005.19;;;9.42;100.00
74103;BME280;62853;46.166;3.640;2022-12-20T09:28:48;101008.09;;;9.55;100.00
74103;BME280;62853;46.166;3.640;2022-12-20T09:31:16;101002.53;;;9.61;100.00
74103;BME280;62853;46.166;3.640;2022-12-20T09:33:42;101004.88;;;9.67;100.00
74103;BME280;62853;46.166;3.640;2022-12-20T09:36:15;101008.22;;;9.71;100.00
74103;BME280;62853;46.166;3.640;2022-12-20T09:38:42;101002.94;;;9.71;100.00
74103;BME280;62853;46.166;3.640;2022-12-20T09:41:18;100997.34;;;9.59;100.00
74103;BME280;62853;46.166;3.640;2022-12-20T09:43:45;101006.09;;;9.60;100.00
74103;BME280;62853;46.166;3.640;2022-12-20T09:46:12;101015.94;;;9.56;100.00
74103;BME280;62853;46.166;3.640;2022-12-20T09:48:39;101012.75;;;9.49;100.00
74103;BME280;62853;46.166;3.640;2022-12-20T09:51:17;101017.06;;;9.50;100.00
74103;BME280;62853;46.166;3.640;2022-12-20T09:54:12;101011.88;;;9.49;100.00
74103;BME280;62853;46.166;3.640;2022-12-20T09:59:26;100990.06;;;9.47;100.00
74103;BME280;62853;46.166;3.640;2022-12-20T10:01:52;101002.03;;;9.53;100.00
74103;BME280;62853;46.166;3.640;2022-12-20T10:04:22;101005.75;;;9.48;100.00
74103;BME280;62853;46.166;3.640;2022-12-20T10:12:44;100995.19;;;9.67;100.00
74103;BME280;62853;46.166;3.640;2022-12-20T10:15:24;101006.84;;;9.81;100.00
74103;BME280;62853;46.166;3.640;2022-12-20T10:23:19;101003.28;;;9.99;100.00
74103;BME280;62853;46.166;3.640;2022-12-20T10:25:53;101004.25;;;9.98;100.00
74103;BME280;62853;46.166;3.640;2022-12-20T10:28:27;101017.47;;;9.97;100.00
74103;BME280;62853;46.166;3.640;2022-12-20T10:30:58;101008.09;;;9.91;100.00
74103;BME280;62853;46.166;3.640;2022-12-20T10:33:24;101009.88;;;9.91;100.00
74103;BME280;62853;46.166;3.640;2022-12-20T10:35:51;100994.31;;;9.86;100.00
74103;BME280;62853;46.166;3.640;2022-12-20T10:38:17;100997.00;;;9.84;100.00
74103;BME280;62853;46.166;3.640;2022-12-20T10:43:24;100998.03;;;9.82;100.00
74103;BME280;62853;46.166;3.640;2022-12-20T10:46:03;100987.03;;;9.74;100.00
74103;BME280;62853;46.166;3.640;2022-12-20T10:53:23;100985.78;;;9.63;100.00
74103;BME280;62853;46.166;3.640;2022-12-20T10:55:50;100985.00;;;9.61;100.00
74103;BME280;62853;46.166;3.640;2022-12-20T11:01:15;100982.72;;;9.54;100.00
74103;BME280;62853;46.166;3.640;2022-12-20T11:03:53;100980.09;;;9.54;100.00
74103;BME280;62853;46.166;3.640;2022-12-20T11:06:22;100991.53;;;9.53;100.00
74103;BME280;62853;46.166;3.640;2022-12-20T11:08:48;100981.75;;;9.56;100.00
74103;BME280;62853;46.166;3.640;2022-12-20T11:11:18;100985.63;;;9.66;100.00
74103;BME280;62853;46.166;3.640;2022-12-20T11:13:44;100965.28;;;9.70;100.00
74103;BME280;62853;46.166;3.640;2022-12-20T11:16:25;100981.22;;;9.84;100.00
74103;BME280;62853;46.166;3.640;2022-12-20T11:19:05;100973.41;;;9.83;100.00
74103;BME280;62853;46.166;3.640;2022-12-20T11:32:47;100965.13;;;9.73;100.00
74103;BME280;62853;46.166;3.640;2022-12-20T11:35:21;100960.03;;;9.70;100.00
74103;BME280;62853;46.166;3.640;2022-12-20T11:37:55;100964.13;;;9.76;100.00
74103;BME280;62853;46.166;3.640;2022-12-20T11:40:32;100952.84;;;9.74;100.00
74103;BME280;62853;46.166;3.640;2022-12-20T11:45:36;100956.31;;;9.74;100.00
74103;BME280;62853;46.166;3.640;2022-12-20T11:53:22;100948.75;;;9.85;100.00
74103;BME280;62853;46.166;3.640;2022-12-20T11:55:53;100938.22;;;9.85;100.00
74103;BME280;62853;46.166;3.640;2022-12-20T11:58:28;100953.78;;;9.90;100.00
74103;BME280;62853;46.166;3.640;2022-12-20T12:01:03;100931.84;;;9.90;100.00
74103;BME280;62853;46.166;3.640;2022-12-20T12:03:36;100935.44;;;9.89;100.00
74103;BME280;62853;46.166;3.640;2022-12-20T12:06:15;100943.41;;;9.87;100.00
74103;BME280;62853;46.166;3.640;2022-12-20T12:08:46;100935.44;;;9.89;100.00
74103;BME280;62853;46.166;3.640;2022-12-20T12:11:23;100934.13;;;9.97;100.00
74103;BME280;62853;46.166;3.640;2022-12-20T12:13:49;100933.97;;;10.00;100.00
74103;BME280;62853;46.166;3.640;2022-12-20T12:16:19;100936.59;;;10.00;100.00
74103;BME280;62853;46.166;3.640;2022-12-20T12:18:48;100937.34;;;10.02;100.00
74103;BME280;62853;46.166;3.640;2022-12-20T12:26:26;100925.13;;;9.84;100.00
74103;BME280;62853;46.166;3.640;2022-12-20T12:28:54;100925.06;;;9.85;100.00
74103;BME280;62853;46.166;3.640;2022-12-20T12:31:27;100924.03;;;9.88;100.00
74103;BME280;62853;46.166;3.640;2022-12-20T12:43:12;100931.38;;;9.81;100.00
74103;BME280;62853;46.166;3.640;2022-12-20T12:45:31;100922.50;;;9.84;100.00
74103;BME280;62853;46.166;3.640;2022-12-20T12:48:06;100924.44;;;9.80;100.00
74103;BME280;62853;46.166;3.640;2022-12-20T12:50:37;100926.22;;;9.80;100.00
74103;BME280;62853;46.166;3.640;2022-12-20T12:55:45;100918.41;;;9.78;100.00
74103;BME280;62853;46.166;3.640;2022-12-20T13:03:16;100918.78;;;9.71;100.00
74103;BME280;62853;46.166;3.640;2022-12-20T13:16:44;100915.75;;;9.61;100.00
74103;BME280;62853;46.166;3.640;2022-12-20T13:21:47;100920.25;;;9.59;100.00
74103;BME280;62853;46.166;3.640;2022-12-20T13:24:37;100913.44;;;9.55;100.00
74103;BME280;62853;46.166;3.640;2022-12-20T13:27:14;100912.72;;;9.51;100.00
74103;BME280;62853;46.166;3.640;2022-12-20T13:29:56;100918.16;;;9.48;100.00
74103;BME280;62853;46.166;3.640;2022-12-20T13:48:55;100916.59;;;9.44;100.00
74103;BME280;62853;46.166;3.640;2022-12-20T13:51:23;100922.78;;;9.43;100.00
74103;BME280;62853;46.166;3.640;2022-12-20T13:54:00;100925.50;;;9.41;100.00
74103;BME280;62853;46.166;3.640;2022-12-20T13:58:58;100922.25;;;9.36;100.00
74103;BME280;62853;46.166;3.640;2022-12-20T14:01:27;100916.09;;;9.36;100.00
74103;BME280;62853;46.166;3.640;2022-12-20T14:03:53;100913.56;;;9.34;100.00
74103;BME280;62853;46.166;3.640;2022-12-20T14:06:21;100922.25;;;9.36;100.00
74103;BME280;62853;46.166;3.640;2022-12-20T14:08:49;100916.09;;;9.36;100.00
74103;BME280;62853;46.166;3.640;2022-12-20T14:11:17;100915.34;;;9.34;100.00
74103;BME280;62853;46.166;3.640;2022-12-20T14:13:53;100919.69;;;9.35;100.00
74103;BME280;62853;46.166;3.640;2022-12-20T14:16:19;100901.63;;;9.27;100.00
74103;BME280;62853;46.166;3.640;2022-12-20T14:19:01;100910.16;;;9.32;100.00
74103;BME280;62853;46.166;3.640;2022-12-20T14:21:30;100917.34;;;9.28;100.00
74103;BME280;62853;46.166;3.640;2022-12-20T14:23:59;100920.81;;;9.29;100.00
74103;BME280;62853;46.166;3.640;2022-12-20T14:26:32;100916.50;;;9.28;100.00
74103;BME280;62853;46.166;3.640;2022-12-20T14:29:00;100912.00;;;9.30;100.00
74103;BME280;62853;46.166;3.640;2022-12-20T14:31:36;100918.91;;;9.33;100.00
74103;BME280;62853;46.166;3.640;2022-12-20T14:34:24;100909.38;;;9.30;100.00
74103;BME280;62853;46.166;3.640;2022-12-20T14:36:50;100903.44;;;9.26;100.00
74103;BME280;62853;46.166;3.640;2022-12-20T14:39:25;100912.84;;;9.30;100.00
74103;BME280;62853;46.166;3.640;2022-12-20T14:41:56;100911.25;;;9.28;100.00
74103;BME280;62853;46.166;3.640;2022-12-20T14:44:23;100908.81;;;9.23;100.00